Time;durP1;ratioP1;P1;durP2;ratioP2;P2;SDS_P1;SDS_P2;PMS_P1;PMS_P2;Temp;Humidity;BMP_temperature;BMP_pressure;BME280_temperature;BME280_humidity;BME280_pressure;Samples;Min_cycle;Max_cycle;Signal;HPM_P1;HPM_P2
2022/01/03 00:00:30;;;;;;;2.05;0.68;;;;;;;;;;7389321;19;19994;-70
2022/01/03 00:02:58;;;;;;;2.95;0.77;;;;;;;;;;7388227;19;20006;-70
2022/01/03 00:05:24;;;;;;;4.22;1.00;;;;;;;;;;7388003;19;20007;-71
2022/01/03 00:07:50;;;;;;;0.90;0.50;;;;;;;;;;7389084;19;20484;-71
2022/01/03 00:10:18;;;;;;;2.97;0.63;;;;;;;;;;7388625;19;19987;-71
2022/01/03 00:12:43;;;;;;;0.90;0.65;;;;;;;;;;7390119;19;19995;-71
2022/01/03 00:15:13;;;;;;;3.50;1.10;;;;;;;;;;7389457;19;19991;-70
2022/01/03 00:17:38;;;;;;;3.38;1.10;;;;;;;;;;7389252;19;20011;-70
2022/01/03 00:20:05;;;;;;;5.78;1.10;;;;;;;;;;7387146;19;20013;-70
2022/01/03 00:22:55;;;;;;;4.03;1.13;;;;;;;;;;7392632;19;19998;-71
2022/01/03 00:25:22;;;;;;;4.38;0.60;;;;;;;;;;7389559;19;20429;-71
2022/01/03 00:27:57;;;;;;;2.58;0.75;;;;;;;;;;7388601;19;20195;-70
2022/01/03 00:30:23;;;;;;;2.60;0.90;;;;;;;;;;7388902;19;19998;-71
2022/01/03 00:32:51;;;;;;;1.65;0.60;;;;;;;;;;7389075;19;20001;-71
2022/01/03 00:35:18;;;;;;;0.77;0.50;;;;;;;;;;7391866;19;19998;-70
2022/01/03 00:37:45;;;;;;;1.15;0.70;;;;;;;;;;7392616;19;20019;-72
2022/01/03 00:40:13;;;;;;;1.52;0.50;;;;;;;;;;7385947;19;20452;-70
2022/01/03 00:42:39;;;;;;;4.00;1.23;;;;;;;;;;7388737;19;19995;-71
2022/01/03 00:45:05;;;;;;;0.70;0.70;;;;;;;;;;7388171;19;19995;-70
2022/01/03 00:47:34;;;;;;;2.90;0.90;;;;;;;;;;7388543;19;20098;-72
2022/01/03 00:50:15;;;;;;;1.50;0.70;;;;;;;;;;7387780;19;19998;-70
2022/01/03 00:52:41;;;;;;;3.17;0.70;;;;;;;;;;7388838;19;19997;-70
2022/01/03 00:55:07;;;;;;;1.10;0.70;;;;;;;;;;7388343;19;20330;-70
2022/01/03 00:57:55;;;;;;;4.55;0.98;;;;;;;;;;7391419;19;19994;-71
2022/01/03 01:00:20;;;;;;;2.95;0.82;;;;;;;;;;7387485;19;19999;-71
2022/01/03 01:03:00;;;;;;;5.82;1.00;;;;;;;;;;7388089;19;20598;-71
2022/01/03 01:05:26;;;;;;;2.80;0.90;;;;;;;;;;7388304;19;19987;-71
2022/01/03 01:07:54;;;;;;;2.95;0.65;;;;;;;;;;7387828;19;20061;-71
2022/01/03 01:10:20;;;;;;;1.98;0.70;;;;;;;;;;7387075;19;20030;-71
2022/01/03 01:12:46;;;;;;;3.88;0.60;;;;;;;;;;7387786;19;19998;-71
2022/01/03 01:15:14;;;;;;;1.67;0.85;;;;;;;;;;7387140;19;20029;-71
2022/01/03 01:17:40;;;;;;;2.90;0.90;;;;;;;;;;7387929;19;19986;-71
2022/01/03 01:20:06;;;;;;;2.53;0.77;;;;;;;;;;7385192;19;20301;-71
2022/01/03 01:22:31;;;;;;;2.58;1.10;;;;;;;;;;7390678;19;19997;-70
2022/01/03 01:25:24;;;;;;;2.15;0.80;;;;;;;;;;7390037;19;19993;-71
2022/01/03 01:27:47;;;;;;;5.53;1.63;;;;;;;;;;7388816;19;20442;-72
2022/01/03 01:30:12;;;;;;;2.35;0.90;;;;;;;;;;7386227;19;19995;-70
2022/01/03 01:32:46;;;;;;;3.30;0.80;;;;;;;;;;7387276;19;20023;-71
2022/01/03 01:35:13;;;;;;;2.45;1.10;;;;;;;;;;7388461;19;20002;-70
2022/01/03 01:37:40;;;;;;;2.75;0.98;;;;;;;;;;7387228;19;19994;-71
2022/01/03 01:40:06;;;;;;;8.88;1.20;;;;;;;;;;7384512;19;19999;-71
2022/01/03 01:42:35;;;;;;;3.50;1.10;;;;;;;;;;7387111;19;19998;-72
2022/01/03 01:45:02;;;;;;;3.38;0.82;;;;;;;;;;7386852;19;19998;-70
2022/01/03 01:47:27;;;;;;;3.03;0.80;;;;;;;;;;7386941;19;19994;-71
2022/01/03 01:49:55;;;;;;;2.90;1.27;;;;;;;;;;7386116;19;20558;-71
2022/01/03 01:52:23;;;;;;;3.13;1.35;;;;;;;;;;7387218;19;19995;-71
2022/01/03 01:55:00;;;;;;;4.03;1.00;;;;;;;;;;7387034;19;20047;-71
2022/01/03 01:57:58;;;;;;;8.63;1.75;;;;;;;;;;7386901;19;20016;-72
2022/01/03 02:00:24;;;;;;;3.63;1.17;;;;;;;;;;7386178;19;19990;-70
2022/01/03 02:02:52;;;;;;;5.10;1.08;;;;;;;;;;7386574;19;19998;-72
2022/01/03 02:05:37;;;;;;;2.05;1.10;;;;;;;;;;7386699;19;19998;-71
2022/01/03 02:08:43;;;;;;;1.95;1.15;;;;;;;;;;7385616;19;20002;-71
2022/01/03 02:11:18;;;;;;;1.57;0.80;;;;;;;;;;7384445;19;20333;-70
2022/01/03 02:13:44;;;;;;;6.28;1.27;;;;;;;;;;7386202;19;20223;-71
2022/01/03 02:16:11;;;;;;;3.15;0.85;;;;;;;;;;7390726;19;19991;-70
2022/01/03 02:18:36;;;;;;;1.42;0.90;;;;;;;;;;7387755;19;20008;-71
2022/01/03 02:21:02;;;;;;;3.17;0.80;;;;;;;;;;7390545;19;20047;-71
2022/01/03 02:23:28;;;;;;;2.92;0.90;;;;;;;;;;7390520;19;20341;-71
2022/01/03 02:25:54;;;;;;;2.15;0.90;;;;;;;;;;7387422;19;20054;-71
2022/01/03 02:28:22;;;;;;;3.25;0.95;;;;;;;;;;7391700;19;20028;-70
2022/01/03 02:30:48;;;;;;;1.25;0.60;;;;;;;;;;7393189;19;20022;-71
2022/01/03 02:33:14;;;;;;;1.23;0.77;;;;;;;;;;7393243;19;19998;-71
2022/01/03 02:35:40;;;;;;;3.53;0.80;;;;;;;;;;7392913;19;19998;-71
2022/01/03 02:38:07;;;;;;;2.92;0.70;;;;;;;;;;7391309;19;19999;-71
2022/01/03 02:40:32;;;;;;;1.70;0.75;;;;;;;;;;7393206;19;20007;-71
2022/01/03 02:42:58;;;;;;;2.40;0.77;;;;;;;;;;7392674;19;20002;-70
2022/01/03 02:45:25;;;;;;;4.30;1.50;;;;;;;;;;7392688;19;19994;-72
2022/01/03 02:47:54;;;;;;;2.80;0.93;;;;;;;;;;7393293;19;20030;-71
2022/01/03 02:50:20;;;;;;;4.63;0.80;;;;;;;;;;7391859;19;20369;-71
2022/01/03 02:52:46;;;;;;;2.95;0.70;;;;;;;;;;7392395;19;19995;-71
2022/01/03 02:55:13;;;;;;;2.50;0.77;;;;;;;;;;7392336;19;20070;-70
2022/01/03 02:57:41;;;;;;;2.33;0.68;;;;;;;;;;7391443;19;20337;-70
2022/01/03 03:00:10;;;;;;;4.45;1.00;;;;;;;;;;7389131;19;20005;-71
2022/01/03 03:02:35;;;;;;;3.55;1.00;;;;;;;;;;7392281;19;19990;-71
2022/01/03 03:05:04;;;;;;;3.67;1.00;;;;;;;;;;7395091;19;20376;-71
2022/01/03 03:07:30;;;;;;;2.05;0.75;;;;;;;;;;7396472;19;20003;-71
2022/01/03 03:09:57;;;;;;;5.57;1.10;;;;;;;;;;7390646;19;20483;-72
2022/01/03 03:12:22;;;;;;;3.83;0.75;;;;;;;;;;7391726;19;19998;-71
2022/01/03 03:14:48;;;;;;;5.95;0.70;;;;;;;;;;7391815;19;20062;-71
2022/01/03 03:17:14;;;;;;;2.58;0.70;;;;;;;;;;7391815;19;19998;-70
2022/01/03 03:19:54;;;;;;;2.35;1.00;;;;;;;;;;7388679;19;20026;-71
2022/01/03 03:22:20;;;;;;;3.10;1.15;;;;;;;;;;7393899;19;20022;-72
2022/01/03 03:24:45;;;;;;;4.15;1.10;;;;;;;;;;7391127;19;20337;-71
2022/01/03 03:27:11;;;;;;;3.05;0.70;;;;;;;;;;7391563;19;20371;-71
2022/01/03 03:29:49;;;;;;;3.00;0.70;;;;;;;;;;7388108;19;20005;-71
2022/01/03 03:32:15;;;;;;;3.55;0.65;;;;;;;;;;7391554;19;20028;-72
2022/01/03 03:34:41;;;;;;;3.95;0.70;;;;;;;;;;7391921;19;19999;-71
2022/01/03 03:37:07;;;;;;;3.63;1.00;;;;;;;;;;7391421;19;20002;-72
2022/01/03 03:39:34;;;;;;;4.30;0.90;;;;;;;;;;7387958;19;19995;-71
2022/01/03 03:42:00;;;;;;;5.45;0.70;;;;;;;;;;7390916;19;19995;-70
2022/01/03 03:44:26;;;;;;;3.95;1.10;;;;;;;;;;7390730;19;19991;-71
2022/01/03 03:46:51;;;;;;;2.05;0.80;;;;;;;;;;7390843;19;20709;-71
2022/01/03 03:49:17;;;;;;;3.42;1.02;;;;;;;;;;7387952;19;20005;-70
2022/01/03 03:51:42;;;;;;;2.83;0.90;;;;;;;;;;7390633;19;20018;-72
2022/01/03 03:54:07;;;;;;;5.25;1.20;;;;;;;;;;7392942;19;19995;-71
2022/01/03 03:56:34;;;;;;;3.58;0.80;;;;;;;;;;7394724;19;19995;-70
2022/01/03 03:58:59;;;;;;;4.07;1.05;;;;;;;;;;7388523;19;19998;-71
2022/01/03 04:01:25;;;;;;;3.55;0.63;;;;;;;;;;7390498;19;20488;-71
2022/01/03 04:03:50;;;;;;;3.70;0.80;;;;;;;;;;7390074;19;20017;-71
2022/01/03 04:06:17;;;;;;;4.53;0.90;;;;;;;;;;7390080;19;19986;-71
2022/01/03 04:08:42;;;;;;;2.38;0.68;;;;;;;;;;7387733;19;20448;-70
2022/01/03 04:11:08;;;;;;;2.35;0.85;;;;;;;;;;7390229;19;19991;-71
2022/01/03 04:13:34;;;;;;;5.13;1.10;;;;;;;;;;7390012;19;20381;-72
2022/01/03 04:16:00;;;;;;;4.57;1.10;;;;;;;;;;7389933;19;20001;-70
2022/01/03 04:18:25;;;;;;;7.15;1.42;;;;;;;;;;7387518;19;20047;-71
2022/01/03 04:20:51;;;;;;;3.67;1.02;;;;;;;;;;7390075;19;20479;-71
2022/01/03 04:23:16;;;;;;;3.10;0.82;;;;;;;;;;7394054;19;20010;-71
2022/01/03 04:25:41;;;;;;;1.38;0.60;;;;;;;;;;7389644;19;19995;-71
2022/01/03 04:28:06;;;;;;;1.92;0.90;;;;;;;;;;7387915;19;20452;-71
2022/01/03 04:30:32;;;;;;;4.65;1.17;;;;;;;;;;7388852;19;20333;-71
2022/01/03 04:32:57;;;;;;;1.55;0.77;;;;;;;;;;7389153;19;20001;-71
2022/01/03 04:35:22;;;;;;;3.15;1.00;;;;;;;;;;7388758;19;19987;-71
2022/01/03 04:37:47;;;;;;;3.03;0.70;;;;;;;;;;7388023;19;19998;-71
2022/01/03 04:40:13;;;;;;;3.92;1.10;;;;;;;;;;7386288;19;20001;-71
2022/01/03 04:42:38;;;;;;;5.00;1.30;;;;;;;;;;7388875;19;20002;-70
2022/01/03 04:45:05;;;;;;;4.57;1.20;;;;;;;;;;7391406;19;19995;-71
2022/01/03 04:47:30;;;;;;;5.05;1.00;;;;;;;;;;7392551;19;20464;-70
2022/01/03 04:49:55;;;;;;;4.90;0.93;;;;;;;;;;7387311;19;19998;-70
2022/01/03 04:52:21;;;;;;;6.25;1.17;;;;;;;;;;7388053;19;20454;-71
2022/01/03 04:54:46;;;;;;;2.03;0.80;;;;;;;;;;7388458;19;20033;-71
2022/01/03 04:57:11;;;;;;;3.60;0.82;;;;;;;;;;7388751;19;19994;-70
2022/01/03 04:59:37;;;;;;;2.78;0.98;;;;;;;;;;7385788;19;20322;-71
2022/01/03 05:02:04;;;;;;;5.57;1.15;;;;;;;;;;7388673;19;20526;-72
2022/01/03 05:04:29;;;;;;;2.90;0.90;;;;;;;;;;7388737;19;20017;-71
2022/01/03 05:06:55;;;;;;;3.05;1.20;;;;;;;;;;7388337;19;20015;-71
2022/01/03 05:09:20;;;;;;;4.90;0.70;;;;;;;;;;7385861;19;19998;-70
2022/01/03 05:11:45;;;;;;;3.38;0.90;;;;;;;;;;7388361;19;20455;-71
2022/01/03 05:14:10;;;;;;;4.90;0.77;;;;;;;;;;7387957;19;19998;-71
2022/01/03 05:16:36;;;;;;;5.25;0.85;;;;;;;;;;7387703;19;20032;-70
2022/01/03 05:19:02;;;;;;;6.13;0.90;;;;;;;;;;7385411;19;20032;-71
2022/01/03 05:21:27;;;;;;;4.60;1.00;;;;;;;;;;7388668;19;20360;-70
2022/01/03 05:23:52;;;;;;;4.45;1.33;;;;;;;;;;7387719;19;20002;-71
2022/01/03 05:26:18;;;;;;;4.78;1.30;;;;;;;;;;7387688;19;20005;-71
2022/01/03 05:28:45;;;;;;;5.15;1.23;;;;;;;;;;7385320;19;20309;-71
2022/01/03 05:31:12;;;;;;;3.08;0.77;;;;;;;;;;7387792;19;20005;-71
2022/01/03 05:33:37;;;;;;;4.32;0.65;;;;;;;;;;7388792;19;20003;-71
2022/01/03 05:36:03;;;;;;;2.55;1.00;;;;;;;;;;7389973;19;19998;-71
2022/01/03 05:38:28;;;;;;;4.03;0.90;;;;;;;;;;7385136;19;20422;-71
2022/01/03 05:40:54;;;;;;;6.18;0.90;;;;;;;;;;7387541;19;20022;-71
2022/01/03 05:43:19;;;;;;;3.63;0.95;;;;;;;;;;7387215;19;20003;-71
2022/01/03 05:45:46;;;;;;;3.72;0.60;;;;;;;;;;7387267;19;20087;-71
2022/01/03 05:48:11;;;;;;;3.20;0.88;;;;;;;;;;7385384;19;20402;-71
2022/01/03 05:50:36;;;;;;;11.20;1.60;;;;;;;;;;7386922;19;20001;-71
2022/01/03 05:53:02;;;;;;;3.17;0.85;;;;;;;;;;7384682;19;19999;-71
2022/01/03 05:55:27;;;;;;;4.20;0.63;;;;;;;;;;7387091;19;20058;-71
2022/01/03 05:57:52;;;;;;;9.63;1.60;;;;;;;;;;7386328;19;19995;-70
2022/01/03 06:00:20;;;;;;;4.30;1.30;;;;;;;;;;7383987;19;20067;-71
2022/01/03 06:02:45;;;;;;;2.28;0.80;;;;;;;;;;7393820;19;20084;-71
2022/01/03 06:05:20;;;;;;;2.38;0.70;;;;;;;;;;7393624;19;20032;-71
2022/01/03 06:07:46;;;;;;;3.55;1.27;;;;;;;;;;7393331;19;20002;-70
2022/01/03 06:10:17;;;;;;;3.63;0.98;;;;;;;;;;7392830;19;20122;-71
2022/01/03 06:12:45;;;;;;;3.78;1.17;;;;;;;;;;7393863;19;20010;-71
2022/01/03 06:15:11;;;;;;;1.48;0.50;;;;;;;;;;7393737;19;20463;-71
2022/01/03 06:17:36;;;;;;;2.45;0.70;;;;;;;;;;7393415;19;20002;-71
2022/01/03 06:20:02;;;;;;;3.53;0.80;;;;;;;;;;7390297;19;20035;-71
2022/01/03 06:22:27;;;;;;;3.50;0.88;;;;;;;;;;7395621;19;20017;-71
2022/01/03 06:24:52;;;;;;;2.28;0.73;;;;;;;;;;7396087;19;20003;-71
2022/01/03 06:27:18;;;;;;;3.95;1.10;;;;;;;;;;7396967;19;19999;-70
2022/01/03 06:29:43;;;;;;;2.72;1.05;;;;;;;;;;7390485;19;20321;-71
2022/01/03 06:32:08;;;;;;;6.22;1.13;;;;;;;;;;7393334;19;20321;-71
2022/01/03 06:34:33;;;;;;;5.82;1.10;;;;;;;;;;7393143;19;20015;-71
2022/01/03 06:36:59;;;;;;;4.05;1.13;;;;;;;;;;7392765;19;19991;-71
2022/01/03 06:39:24;;;;;;;5.10;0.93;;;;;;;;;;7390353;19;20007;-70
2022/01/03 06:41:49;;;;;;;4.35;0.80;;;;;;;;;;7392910;19;20011;-71
2022/01/03 06:44:15;;;;;;;8.15;1.55;;;;;;;;;;7392936;19;19987;-71
2022/01/03 06:46:40;;;;;;;5.13;1.10;;;;;;;;;;7392384;19;20084;-70
2022/01/03 06:49:06;;;;;;;7.50;1.33;;;;;;;;;;7389382;19;20574;-70
2022/01/03 06:51:34;;;;;;;4.20;1.17;;;;;;;;;;7392405;19;20002;-72
2022/01/03 06:54:12;;;;;;;6.80;1.25;;;;;;;;;;7392519;19;20006;-71
2022/01/03 06:56:39;;;;;;;5.05;1.08;;;;;;;;;;7392558;19;20438;-71
2022/01/03 06:59:04;;;;;;;3.50;0.88;;;;;;;;;;7389883;19;20003;-71
2022/01/03 07:01:30;;;;;;;3.60;0.90;;;;;;;;;;7391733;19;19994;-71
2022/01/03 07:03:55;;;;;;;7.32;0.90;;;;;;;;;;7392031;19;20009;-71
2022/01/03 07:06:21;;;;;;;5.38;1.38;;;;;;;;;;7392021;19;20004;-70
2022/01/03 07:08:46;;;;;;;2.78;0.70;;;;;;;;;;7389753;19;20047;-71
2022/01/03 07:11:11;;;;;;;3.50;0.80;;;;;;;;;;7391818;19;19999;-71
2022/01/03 07:13:44;;;;;;;6.10;1.00;;;;;;;;;;7393891;19;20394;-70
2022/01/03 07:18:56;;;;;;;5.13;0.80;;;;;;;;;;7389592;19;20019;-72
2022/01/03 07:21:23;;;;;;;4.45;0.88;;;;;;;;;;7391673;19;20120;-72
2022/01/03 07:23:49;;;;;;;2.97;0.80;;;;;;;;;;7391665;19;19994;-70
2022/01/03 07:26:14;;;;;;;3.53;0.82;;;;;;;;;;7391548;19;19999;-71
2022/01/03 07:28:40;;;;;;;4.90;0.98;;;;;;;;;;7388688;19;19999;-72
2022/01/03 07:31:05;;;;;;;4.63;1.35;;;;;;;;;;7391600;19;20054;-71
2022/01/03 07:33:30;;;;;;;4.50;1.35;;;;;;;;;;7391341;19;20058;-71
2022/01/03 07:35:55;;;;;;;3.08;1.23;;;;;;;;;;7390942;19;20006;-71
2022/01/03 07:38:21;;;;;;;5.18;1.00;;;;;;;;;;7388957;19;20024;-70
2022/01/03 07:40:46;;;;;;;7.00;0.70;;;;;;;;;;7391105;19;20471;-71
2022/01/03 07:43:11;;;;;;;3.42;0.80;;;;;;;;;;7390532;19;19995;-71
2022/01/03 07:45:37;;;;;;;4.63;1.02;;;;;;;;;;7390988;19;19994;-71
2022/01/03 07:48:02;;;;;;;1.05;0.60;;;;;;;;;;7389954;19;20002;-72
2022/01/03 07:50:28;;;;;;;4.65;0.98;;;;;;;;;;7389984;19;20007;-71
2022/01/03 07:52:53;;;;;;;4.63;0.82;;;;;;;;;;7390659;19;20032;-71
2022/01/03 07:55:19;;;;;;;5.32;0.70;;;;;;;;;;7390208;19;19991;-71
2022/01/03 07:57:45;;;;;;;4.65;0.70;;;;;;;;;;7389854;19;20006;-71
2022/01/03 08:00:14;;;;;;;5.40;1.17;;;;;;;;;;7388390;19;20003;-71
2022/01/03 08:02:41;;;;;;;4.40;1.20;;;;;;;;;;7390276;19;20007;-71
2022/01/03 08:05:08;;;;;;;3.35;0.80;;;;;;;;;;7392822;19;20479;-71
2022/01/03 08:07:35;;;;;;;3.40;0.70;;;;;;;;;;7389820;19;20451;-71
2022/01/03 08:10:01;;;;;;;6.32;0.80;;;;;;;;;;7389146;19;20036;-70
2022/01/03 08:12:26;;;;;;;3.83;0.73;;;;;;;;;;7389567;19;20007;-71
2022/01/03 08:14:51;;;;;;;4.22;0.90;;;;;;;;;;7389745;19;19994;-71
2022/01/03 08:17:16;;;;;;;4.82;0.80;;;;;;;;;;7389868;19;20011;-70
2022/01/03 08:19:42;;;;;;;6.72;1.05;;;;;;;;;;7386540;19;20340;-70
2022/01/03 08:22:07;;;;;;;3.45;1.00;;;;;;;;;;7391654;19;19995;-71
2022/01/03 08:24:32;;;;;;;3.45;1.00;;;;;;;;;;7387886;19;20476;-71
2022/01/03 08:26:57;;;;;;;2.53;0.70;;;;;;;;;;7389062;19;20001;-70
2022/01/03 08:29:23;;;;;;;5.40;1.13;;;;;;;;;;7386597;19;20002;-70
2022/01/03 08:31:49;;;;;;;3.95;0.90;;;;;;;;;;7389517;19;20464;-70
2022/01/03 08:34:14;;;;;;;3.55;0.75;;;;;;;;;;7388639;19;20003;-70
2022/01/03 08:36:39;;;;;;;9.75;1.15;;;;;;;;;;7389370;19;20017;-72
2022/01/03 08:39:05;;;;;;;2.22;0.63;;;;;;;;;;7386721;19;20002;-70
2022/01/03 08:41:31;;;;;;;5.95;1.02;;;;;;;;;;7388789;19;20074;-71
2022/01/03 08:43:56;;;;;;;3.45;0.90;;;;;;;;;;7388775;19;19998;-70
2022/01/03 08:46:23;;;;;;;6.45;0.80;;;;;;;;;;7388787;19;20014;-71
2022/01/03 08:48:50;;;;;;;5.60;1.40;;;;;;;;;;7386543;19;20111;-70
2022/01/03 08:51:15;;;;;;;4.20;1.13;;;;;;;;;;7388868;19;19999;-70
2022/01/03 08:53:40;;;;;;;3.95;0.80;;;;;;;;;;7392593;19;20002;-70
2022/01/03 08:56:05;;;;;;;5.63;1.05;;;;;;;;;;7391866;19;20452;-70
2022/01/03 08:58:31;;;;;;;7.50;0.85;;;;;;;;;;7386201;19;20078;-71
2022/01/03 09:00:56;;;;;;;2.45;0.73;;;;;;;;;;7388159;19;20392;-71
2022/01/03 09:03:22;;;;;;;4.13;0.65;;;;;;;;;;7388029;19;20003;-70
2022/01/03 09:05:49;;;;;;;6.13;0.88;;;;;;;;;;7388435;19;19999;-71
2022/01/03 09:08:16;;;;;;;6.80;1.55;;;;;;;;;;7386116;19;20475;-71
2022/01/03 09:10:42;;;;;;;7.50;0.98;;;;;;;;;;7387702;19;20001;-70
2022/01/03 09:13:07;;;;;;;5.43;0.93;;;;;;;;;;7387939;19;20058;-70
2022/01/03 09:15:33;;;;;;;2.40;0.57;;;;;;;;;;7387960;19;20002;-71
2022/01/03 09:17:58;;;;;;;3.65;1.08;;;;;;;;;;7386963;19;20021;-71
2022/01/03 09:20:24;;;;;;;4.07;0.88;;;;;;;;;;7385962;19;20007;-70
2022/01/03 09:22:53;;;;;;;5.68;0.98;;;;;;;;;;7390843;19;20089;-70
2022/01/03 09:30:29;;;;;;;7.60;1.00;;;;;;;;;;7387433;19;20357;-70
2022/01/03 09:32:55;;;;;;;5.22;1.27;;;;;;;;;;7386104;19;20011;-71
2022/01/03 09:35:21;;;;;;;3.92;0.90;;;;;;;;;;7390124;19;19998;-71
2022/01/03 09:37:47;;;;;;;5.28;0.90;;;;;;;;;;7394238;19;20030;-70
2022/01/03 09:40:12;;;;;;;4.15;0.82;;;;;;;;;;7391444;19;19999;-70
2022/01/03 09:42:39;;;;;;;5.15;0.80;;;;;;;;;;7395435;19;19998;-71
2022/01/03 09:45:07;;;;;;;2.05;1.00;;;;;;;;;;7398713;19;20012;-71
2022/01/03 09:47:34;;;;;;;3.22;0.80;;;;;;;;;;7398313;19;20006;-71
2022/01/03 09:50:00;;;;;;;3.55;0.93;;;;;;;;;;7393788;19;20441;-71
2022/01/03 09:52:26;;;;;;;5.43;0.90;;;;;;;;;;7394252;19;20002;-72
2022/01/03 09:54:54;;;;;;;4.50;1.00;;;;;;;;;;7394146;19;20002;-71
2022/01/03 09:57:21;;;;;;;5.93;1.05;;;;;;;;;;7394203;19;19998;-71
2022/01/03 09:59:48;;;;;;;3.17;0.75;;;;;;;;;;7390386;19;20002;-71
2022/01/03 10:02:17;;;;;;;2.95;0.80;;;;;;;;;;7394197;19;20387;-71
2022/01/03 10:04:43;;;;;;;2.53;0.60;;;;;;;;;;7394269;19;20005;-70
2022/01/03 10:07:11;;;;;;;3.58;0.88;;;;;;;;;;7394643;19;20058;-70
2022/01/03 10:09:38;;;;;;;3.80;0.77;;;;;;;;;;7390159;19;20006;-71
2022/01/03 10:12:04;;;;;;;2.95;0.98;;;;;;;;;;7394046;19;20006;-71
2022/01/03 10:14:29;;;;;;;6.03;1.00;;;;;;;;;;7393693;19;20013;-71
2022/01/03 10:16:55;;;;;;;5.18;1.60;;;;;;;;;;7393580;19;20018;-71
2022/01/03 10:19:20;;;;;;;3.15;0.77;;;;;;;;;;7389925;19;20002;-71
2022/01/03 10:21:50;;;;;;;2.47;0.73;;;;;;;;;;7395241;19;20005;-71
2022/01/03 10:24:18;;;;;;;5.80;0.85;;;;;;;;;;7393421;19;20341;-71
2022/01/03 10:26:54;;;;;;;2.40;0.55;;;;;;;;;;7393052;19;20429;-71
2022/01/03 10:29:28;;;;;;;7.80;2.08;;;;;;;;;;7390671;19;20341;-71
2022/01/03 10:31:55;;;;;;;4.18;1.02;;;;;;;;;;7393419;19;19995;-71
2022/01/03 10:34:23;;;;;;;7.13;0.82;;;;;;;;;;7397431;19;20464;-71
2022/01/03 10:36:50;;;;;;;2.45;0.55;;;;;;;;;;7398778;19;20030;-70
2022/01/03 10:39:19;;;;;;;2.13;0.65;;;;;;;;;;7389765;19;19998;-70
2022/01/03 10:41:46;;;;;;;3.88;0.90;;;;;;;;;;7393201;19;19999;-71
2022/01/03 10:44:29;;;;;;;3.95;0.82;;;;;;;;;;7392861;19;20083;-71
2022/01/03 10:46:54;;;;;;;5.30;1.10;;;;;;;;;;7391226;19;19999;-71
2022/01/03 10:49:20;;;;;;;2.60;0.95;;;;;;;;;;7389274;19;20006;-71
2022/01/03 10:51:46;;;;;;;3.45;0.80;;;;;;;;;;7392590;19;20299;-70
2022/01/03 10:54:17;;;;;;;3.83;0.80;;;;;;;;;;7393576;19;20019;-72
2022/01/03 10:56:51;;;;;;;3.15;0.85;;;;;;;;;;7397389;19;20010;-72
2022/01/03 10:59:18;;;;;;;4.75;0.60;;;;;;;;;;7389721;19;20002;-72
2022/01/03 11:01:46;;;;;;;3.58;0.90;;;;;;;;;;7392205;19;20010;-72
2022/01/03 11:04:25;;;;;;;3.38;0.70;;;;;;;;;;7392596;19;20518;-72
2022/01/03 11:13:17;;;;;;;3.08;1.48;;;;;;;;;;7392568;19;20004;-72
2022/01/03 11:15:50;;;;;;;5.25;0.90;;;;;;;;;;7391471;19;20012;-72
2022/01/03 11:18:17;;;;;;;2.38;0.80;;;;;;;;;;7389827;19;20014;-72
2022/01/03 11:20:44;;;;;;;4.32;0.80;;;;;;;;;;7391944;19;19999;-72
2022/01/03 11:23:17;;;;;;;6.07;1.33;;;;;;;;;;7395259;19;20014;-72
2022/01/03 11:25:42;;;;;;;3.83;0.95;;;;;;;;;;7396036;19;20062;-72
2022/01/03 11:28:09;;;;;;;4.53;1.08;;;;;;;;;;7389731;19;20314;-72
2022/01/03 11:30:35;;;;;;;3.05;1.30;;;;;;;;;;7391466;19;20054;-72
2022/01/03 11:33:01;;;;;;;7.63;1.10;;;;;;;;;;7391357;19;19999;-72
2022/01/03 11:35:26;;;;;;;6.25;1.70;;;;;;;;;;7391791;19;20077;-72
2022/01/03 11:37:52;;;;;;;4.80;0.98;;;;;;;;;;7390265;19;20002;-72
2022/01/03 11:40:18;;;;;;;5.70;0.80;;;;;;;;;;7388283;19;20484;-72
2022/01/03 11:42:44;;;;;;;3.65;0.90;;;;;;;;;;7390706;19;20005;-72
2022/01/03 11:45:11;;;;;;;3.25;0.70;;;;;;;;;;7390874;19;19995;-72
2022/01/03 11:47:37;;;;;;;4.32;0.90;;;;;;;;;;7390317;19;20395;-72
2022/01/03 11:50:06;;;;;;;2.72;0.77;;;;;;;;;;7389305;19;20003;-72
2022/01/03 11:52:37;;;;;;;3.17;0.70;;;;;;;;;;7390441;19;19994;-72
2022/01/03 11:55:05;;;;;;;1.35;0.47;;;;;;;;;;7389988;19;20006;-72
2022/01/03 12:06:05;;;;;;;3.40;0.90;;;;;;;;;;7390342;19;20012;-72
2022/01/03 12:08:33;;;;;;;5.07;1.55;;;;;;;;;;7387974;19;20003;-72
2022/01/03 12:11:00;;;;;;;2.92;0.80;;;;;;;;;;7389663;19;19999;-72
2022/01/03 12:13:48;;;;;;;6.65;1.80;;;;;;;;;;7391332;19;20002;-72
2022/01/03 12:16:14;;;;;;;5.47;0.93;;;;;;;;;;7395711;19;19998;-72
2022/01/03 12:18:59;;;;;;;2.83;0.98;;;;;;;;;;7386946;19;20006;-72
2022/01/03 12:21:46;;;;;;;4.25;1.00;;;;;;;;;;7391063;19;20070;-72
2022/01/03 12:24:27;;;;;;;2.10;0.60;;;;;;;;;;7390007;19;19998;-72
2022/01/03 12:27:13;;;;;;;3.38;1.00;;;;;;;;;;7389560;19;19999;-72
2022/01/03 12:29:54;;;;;;;7.80;3.17;;;;;;;;;;7386716;19;20504;-72
2022/01/03 12:32:33;;;;;;;3.72;0.82;;;;;;;;;;7389348;19;20035;-72
2022/01/03 12:35:10;;;;;;;4.07;0.80;;;;;;;;;;7389738;19;20110;-72
2022/01/03 12:37:43;;;;;;;2.67;0.70;;;;;;;;;;7388680;19;20011;-72
2022/01/03 12:40:12;;;;;;;5.53;0.98;;;;;;;;;;7386754;19;19995;-72
2022/01/03 12:42:51;;;;;;;3.88;1.15;;;;;;;;;;7388643;19;20034;-72
2022/01/03 12:45:36;;;;;;;6.28;0.93;;;;;;;;;;7388649;19;19994;-72
2022/01/03 12:48:08;;;;;;;4.35;0.98;;;;;;;;;;7387869;19;20010;-72
2022/01/03 12:50:34;;;;;;;3.22;0.90;;;;;;;;;;7388484;19;20067;-72
2022/01/03 12:53:01;;;;;;;6.00;1.08;;;;;;;;;;7388668;19;20006;-72
2022/01/03 12:55:38;;;;;;;5.22;0.90;;;;;;;;;;7387219;19;20002;-72
2022/01/03 12:58:16;;;;;;;4.28;0.60;;;;;;;;;;7387402;19;20356;-72
2022/01/03 13:01:00;;;;;;;3.58;0.80;;;;;;;;;;7390969;19;20066;-72
2022/01/03 13:03:29;;;;;;;3.72;0.70;;;;;;;;;;7390690;19;20002;-72
2022/01/03 13:06:14;;;;;;;5.05;0.90;;;;;;;;;;7390694;19;20479;-72
2022/01/03 13:08:48;;;;;;;6.50;1.30;;;;;;;;;;7386844;19;20003;-72
2022/01/03 13:11:17;;;;;;;3.53;0.80;;;;;;;;;;7387512;19;20073;-72
2022/01/03 13:13:48;;;;;;;5.43;0.70;;;;;;;;;;7387657;19;19999;-72
2022/01/03 13:16:31;;;;;;;5.88;1.30;;;;;;;;;;7388256;19;20516;-72
2022/01/03 13:18:59;;;;;;;2.42;0.80;;;;;;;;;;7385675;19;20058;-73
2022/01/03 13:21:30;;;;;;;2.95;0.80;;;;;;;;;;7387450;19;20006;-72
2022/01/03 13:24:01;;;;;;;5.32;1.25;;;;;;;;;;7387898;19;20005;-72
2022/01/03 13:26:31;;;;;;;3.75;0.80;;;;;;;;;;7387727;19;20011;-72
2022/01/03 13:29:03;;;;;;;1.98;0.85;;;;;;;;;;7383773;19;20010;-72
2022/01/03 13:31:29;;;;;;;3.05;0.98;;;;;;;;;;7388518;19;19998;-72
2022/01/03 13:34:01;;;;;;;3.00;0.80;;;;;;;;;;7387574;19;20007;-72
2022/01/03 13:36:32;;;;;;;2.08;0.70;;;;;;;;;;7387607;19;20009;-72
2022/01/03 13:39:24;;;;;;;3.63;0.70;;;;;;;;;;7384832;19;20352;-75
2022/01/03 13:41:55;;;;;;;3.53;1.10;;;;;;;;;;7386764;19;20017;-72
2022/01/03 13:44:42;;;;;;;3.53;0.80;;;;;;;;;;7387390;19;19995;-72
2022/01/03 13:49:54;;;;;;;3.55;0.63;;;;;;;;;;7385902;19;20347;-72
2022/01/03 13:52:47;;;;;;;4.47;0.70;;;;;;;;;;7387064;19;20079;-72
2022/01/03 13:55:29;;;;;;;3.88;1.13;;;;;;;;;;7389604;19;20002;-72
2022/01/03 13:58:12;;;;;;;1.60;0.88;;;;;;;;;;7386517;19;20013;-72
2022/01/03 14:00:47;;;;;;;6.35;1.30;;;;;;;;;;7385005;19;20031;-72
2022/01/03 14:03:15;;;;;;;3.22;0.98;;;;;;;;;;7386667;19;20074;-72
2022/01/03 14:05:41;;;;;;;2.35;0.70;;;;;;;;;;7386791;19;20002;-72
2022/01/03 14:08:07;;;;;;;3.50;1.20;;;;;;;;;;7385420;19;20003;-72
2022/01/03 14:10:43;;;;;;;3.03;0.77;;;;;;;;;;7386107;19;19994;-72
2022/01/03 14:13:14;;;;;;;4.97;1.20;;;;;;;;;;7387181;19;20061;-72
2022/01/03 14:15:58;;;;;;;4.35;1.48;;;;;;;;;;7386812;19;20005;-72
2022/01/03 14:18:50;;;;;;;3.85;1.10;;;;;;;;;;7385261;19;20003;-72
2022/01/03 14:21:33;;;;;;;4.78;1.20;;;;;;;;;;7386351;19;20012;-72
2022/01/03 14:24:06;;;;;;;3.53;0.85;;;;;;;;;;7393698;19;20014;-72
2022/01/03 14:26:32;;;;;;;3.35;0.90;;;;;;;;;;7394001;19;20062;-72
2022/01/03 14:29:12;;;;;;;4.43;1.08;;;;;;;;;;7390373;19;20003;-72
2022/01/03 14:31:46;;;;;;;9.43;1.33;;;;;;;;;;7393607;19;19998;-72
2022/01/03 14:34:20;;;;;;;2.55;0.80;;;;;;;;;;7393585;19;20037;-72
2022/01/03 14:36:46;;;;;;;3.42;1.10;;;;;;;;;;7393484;19;20013;-72
2022/01/03 14:39:11;;;;;;;2.63;1.05;;;;;;;;;;7390248;19;20480;-72
2022/01/03 14:41:37;;;;;;;3.72;0.75;;;;;;;;;;7393295;19;20015;-72
2022/01/03 14:44:06;;;;;;;3.42;1.17;;;;;;;;;;7396578;19;19999;-72
2022/01/03 14:46:37;;;;;;;4.78;1.40;;;;;;;;;;7396835;19;20002;-72
2022/01/03 14:49:05;;;;;;;4.35;1.08;;;;;;;;;;7389722;19;20523;-72
2022/01/03 14:51:44;;;;;;;5.10;0.95;;;;;;;;;;7392966;19;20002;-72
2022/01/03 14:54:14;;;;;;;3.30;0.75;;;;;;;;;;7392297;19;20002;-72
2022/01/03 14:56:39;;;;;;;2.80;1.10;;;;;;;;;;7392486;19;20010;-72
2022/01/03 14:59:13;;;;;;;3.88;1.08;;;;;;;;;;7393597;19;20003;-72
2022/01/03 15:01:39;;;;;;;3.33;0.80;;;;;;;;;;7392463;19;20073;-72
2022/01/03 15:04:04;;;;;;;1.75;0.70;;;;;;;;;;7392137;19;20078;-72
2022/01/03 15:06:30;;;;;;;2.25;0.68;;;;;;;;;;7392438;19;20448;-72
2022/01/03 15:08:55;;;;;;;2.72;1.02;;;;;;;;;;7389185;19;20013;-72
2022/01/03 15:11:21;;;;;;;3.10;0.80;;;;;;;;;;7391961;19;19999;-72
2022/01/03 15:13:47;;;;;;;2.90;0.70;;;;;;;;;;7391714;19;19994;-72
2022/01/03 15:16:12;;;;;;;3.88;0.70;;;;;;;;;;7391942;19;20001;-72